Tiona, PA (16352)

6:23 AM EST on December 26, 2014 (GMT -0500)
Brokenstraw Airport | Change Station
CLOSE
Current Station
Personal Weather Station
Location: Pittsfield, PA
Elevation: 1235 ft
Nearby Weather Stations

Elev 1235 ft 41.83 °N, 79.36 °W | Updated 8 seconds ago

Overcast
Overcast
34.1 °F
Feels Like 30 °F
N
5.0
Wind Variable Wind from WSW
Gusts 11.0 mph

Today
High -- | Low -- °F
--% Chance of Precip.
Yesterday
High -- | Low -- °F
Precip. -- in
7:42 AM 4:51 PM
Waxing Crescent, 25% visible
Pressure 30.19 in
Visibility 10.0 miles
Clouds Overcast 2100 ft
Windchill 30 °F
Dew Point 29 °F
Humidity 82%
Rainfall 0.00 in
Snow Depth Not available.
UV 0 out of 12
Pollen .10 out of 12
Air Quality Not available.
Flu Activity Not available.
METAR KJHW 261115Z 22006KT 10SM OVC021 00/M04 A3019 RMK AO1

More Conditions Fewer Conditions

Pressure 30.19 in
Visibility 10.0 miles
Clouds Overcast 2100 ft
Windchill 30 °F
Dew Point 29 °F
Humidity 82%
Rainfall 0.00 in
Snow Depth Not available.
UV 0 out of 12
Pollen .10 out of 12
Air Quality Not available.
Flu Activity Not available.
METAR KJHW 261115Z 22006KT 10SM OVC021 00/M04 A3019 RMK AO1

More Conditions Fewer Conditions

10-Day Weather Forecast

Almanac

Astronomy

Dec. 26, 2014 Rise Set
Actual Time
Civil Twilight
Nautical Twilight
Astronomical Twilight
Moon
Length of Visible Light
Length of Day
Tomorrow will be .
, % of the Moon is Illuminated

Today's Extremes

State Highs State Lows

Community

WunderPhotos

Upload Photos

1,780,580 photos uploaded!

WunderBlogs® & News

Nearby

Air Quality

  Air Quality AQ Index Pollutant
Not available.

Snow Depth

Station Depth Elevation

Earthquake Activity

City Distance Mag. Time & Date
Minimum magnitude displayed is 2.5.

Coastal Water Temperatures

Place Temperature

Nearby Weather Stations